Latest Weather Observations for Maningrida Airport

IDD60801

Issued at 12:31 pm CST Saturday 6 February 2016 (issued every 30 minutes, with the page automatically refreshed every 10 minutes)

About weather observations | Map of weather stations | Latest weather observations for NT | Other Formats
Station Details ID: 014405 Name: MANINGRIDA AIRPORT Lat: -12.06 Lon: 134.23 Height: 28.1 m
Data from the previous 72 hours. | See also: Recent months at Maningrida Airport
Date/Time
CST
Temp
°C
App
Temp
°C
Dew
Point
Rel
Hum
%
Delta-T
°C
Wind Press
QNH
hPa
Press
MSL
hPa
Rain
since 9 am
mm
Dir
 
Spd
km/h
Gust
km/h
Spd
kts
Gust
kts
06/12:30pm 32.8 36.4 24.3 61 6.0 WSW 13 22 7 12 1006.4 1006.2 0.0
06/12:00pm 31.6 34.4 23.7 63 5.5 W 15 20 8 11 1006.7 1006.5 0.0
06/11:30am 31.8 35.4 24.4 65 5.2 W 13 22 7 12 1006.9 1006.7 0.0
06/11:00am 31.3 34.8 24.2 66 5.0 W 13 22 7 12 1007.2 1007.0 0.0
06/10:30am 30.5 33.7 24.4 70 4.3 WNW 15 22 8 12 1007.5 1007.3 0.0
06/10:00am 30.0 33.3 23.9 70 4.2 W 13 22 7 12 1007.7 1007.5 0.0
06/09:30am 29.1 32.5 24.0 74 3.5 WNW 13 20 7 11 1007.9 1007.7 0.0
06/09:00am 28.5 32.4 24.3 78 2.9 W 11 17 6 9 1007.9 1007.7 -
06/08:30am 27.9 31.2 23.9 79 2.8 W 13 19 7 10 1007.6 1007.4 -
06/08:00am 27.1 30.5 24.0 83 2.1 W 13 20 7 11 1007.4 1007.2 -
06/07:30am 26.6 31.0 24.4 88 1.5 WNW 9 15 5 8 1007.3 1007.1 -
06/07:00am 26.3 30.6 24.3 89 1.4 WNW 9 13 5 7 1006.9 1006.7 -
06/06:30am 26.1 30.8 24.3 90 1.2 WNW 7 11 4 6 1006.7 1006.5 -
06/06:00am 26.1 30.3 24.1 89 1.4 WNW 9 15 5 8 1006.5 1006.3 -
06/05:30am 25.9 30.5 24.1 90 1.2 WNW 7 13 4 7 1006.3 1006.1 -
06/05:00am 25.8 30.1 24.2 91 1.1 WNW 9 17 5 9 1006.2 1006.0 -
06/04:30am 25.8 30.2 24.4 92 1.0 NW 9 15 5 8 1005.9 1005.7 -
06/04:00am 25.7 29.9 24.1 91 1.1 WNW 9 15 5 8 1005.9 1005.7 -
06/03:30am 25.6 30.6 23.8 90 1.2 WNW 4 7 2 4 1005.9 1005.7 -
06/03:00am 25.7 30.2 23.9 90 1.2 NW 7 11 4 6 1006.0 1005.8 0.0
06/02:30am 25.9 30.4 23.9 89 1.4 NW 7 13 4 7 1006.2 1006.0 -
06/02:00am 26.0 30.5 23.9 88 1.4 WNW 7 9 4 5 1006.3 1006.1 -
06/01:30am 25.9 30.5 23.8 88 1.4 WNW 6 11 3 6 1006.6 1006.4 -
06/01:00am 25.9 29.8 23.6 87 1.6 W 9 17 5 9 1006.5 1006.3 -
06/12:30am 25.9 29.9 23.8 88 1.4 W 9 15 5 8 1006.7 1006.5 -
06/12:00am 25.7 30.0 23.7 89 1.4 WSW 7 13 4 7 1006.8 1006.6 -
 
Date/Time
CST
Temp
°C
App
Temp
°C
Dew
Point
Rel
Hum
%
Delta-T
°C
Wind Press
QNH
hPa
Press
MSL
hPa
Rain
since 9 am
mm
Dir
 
Spd
km/h
Gust
km/h
Spd
kts
Gust
kts
05/11:30pm 25.9 29.7 23.4 86 1.7 W 9 15 5 8 1007.0 1006.8 -
05/11:00pm 26.3 31.0 24.0 87 1.6 W 6 9 3 5 1007.1 1006.9 -
05/10:30pm 26.4 31.0 24.2 88 1.5 WNW 7 13 4 7 1007.0 1006.8 -
05/10:00pm 26.2 30.0 24.1 88 1.4 NW 11 15 6 8 1006.9 1006.7 -
05/09:30pm 26.1 31.0 24.3 90 1.2 W 6 9 3 5 1007.2 1007.0 -
05/09:00pm 26.6 31.0 25.0 91 1.1 SW 11 19 6 10 1007.5 1007.3 0.8
05/08:30pm 27.7 33.1 25.1 86 1.8 WSW 6 11 3 6 1007.1 1006.9 -
05/08:00pm 27.8 33.0 24.8 84 2.1 W 6 11 3 6 1006.7 1006.5 -
05/07:44pm 28.0 32.5 24.6 82 2.4 W 9 15 5 8 1006.5 1006.3 -
05/07:31pm 28.5 33.1 25.3 83 2.3 NW 11 17 6 9 1006.1 1005.9 -
05/07:30pm 28.5 32.7 25.3 83 2.3 NW 13 19 7 10 1006.1 1005.9 -
05/07:00pm 27.9 31.5 23.7 78 2.9 NW 11 17 6 9 1005.9 1005.7 -
05/06:59pm 28.0 31.6 23.8 78 2.9 NW 11 17 6 9 1005.9 1005.7 -
05/06:30pm 28.3 31.6 24.5 80 2.7 NW 15 20 8 11 1005.4 1005.2 -
05/06:00pm 28.4 30.1 24.6 80 2.7 NNW 24 33 13 18 1004.6 1004.4 -
05/05:30pm 29.1 31.5 26.3 85 2.0 NNW 26 35 14 19 1004.6 1004.4 -
05/05:00pm 29.7 32.6 25.4 78 3.0 NNW 20 26 11 14 1004.3 1004.1 -
05/04:30pm 30.2 33.0 25.3 75 3.5 N 20 26 11 14 1004.4 1004.2 -
05/04:00pm 30.6 33.6 25.2 73 3.8 N 19 22 10 12 1004.3 1004.1 -
05/03:30pm 30.5 33.4 24.4 70 4.3 N 17 20 9 11 1004.4 1004.2 -
05/03:00pm 32.4 36.6 23.4 59 6.3 E 7 11 4 6 1004.6 1004.4 -
05/02:30pm 32.5 36.0 22.9 57 6.6 SSW 9 13 5 7 1004.5 1004.3 -
05/02:00pm 32.8 36.3 22.9 56 6.8 SSW 9 13 5 7 1004.6 1004.4 -
05/01:30pm 32.6 36.5 23.0 57 6.6 SSE 7 13 4 7 1004.7 1004.5 -
05/01:00pm 32.2 35.5 22.6 57 6.6 WSW 9 19 5 10 1005.0 1004.8 -
05/12:30pm 32.6 36.1 23.5 58 6.3 SW 11 15 6 8 1005.5 1005.3 -
05/12:00pm 32.0 34.7 22.1 55 6.8 SW 11 17 6 9 1006.2 1006.0 -
05/11:30am 31.3 34.3 22.0 57 6.3 WNW 9 15 5 8 1006.7 1006.5 -
05/11:00am 31.0 34.8 23.4 64 5.2 NW 9 15 5 8 1007.2 1007.0 -
05/10:30am 30.0 32.9 23.2 67 4.7 NW 13 19 7 10 1007.6 1007.4 -
05/10:00am 29.0 32.2 23.7 73 3.7 NW 13 19 7 10 1008.0 1007.8 -
05/09:30am - - - - - - - - - - - - -
05/09:13am 27.1 31.1 23.8 82 2.3 W 9 15 5 8 1008.1 1007.9 0.0
05/09:00am 26.2 29.2 22.7 81 2.4 W 11 15 6 8 1008.0 1007.8 20.4
05/08:30am 25.9 29.1 22.4 81 2.4 WSW 9 13 5 7 1007.9 1007.7 20.4
05/08:26am 26.0 29.3 22.5 81 2.4 WSW 9 13 5 7 1007.9 1007.7 20.4
05/08:00am 25.0 29.2 23.2 90 1.2 SW 6 7 3 4 1007.5 1007.3 20.4
05/07:30am 23.9 27.6 22.5 92 0.9 SSW 7 13 4 7 1007.2 1007.0 20.4
05/07:00am 23.4 27.0 22.4 94 0.7 NNW 7 9 4 5 1006.7 1006.5 20.4
05/06:30am 23.3 26.9 22.1 93 0.8 W 6 6 3 3 1006.6 1006.4 20.4
05/06:00am 23.0 26.1 21.5 91 1.0 WNW 7 11 4 6 1006.7 1006.5 20.4
05/05:30am 23.0 26.2 21.3 90 1.1 S 6 9 3 5 1006.2 1006.0 20.4
05/05:00am 22.9 25.6 21.4 91 1.0 S 9 11 5 6 1006.2 1006.0 20.4
05/04:30am 22.9 26.0 21.4 91 1.0 S 7 11 4 6 1006.0 1005.8 20.4
05/04:00am 22.9 24.5 21.4 91 1.0 SSE 15 24 8 13 1005.8 1005.6 20.4
05/03:30am 22.9 25.2 21.4 91 1.0 SSE 11 19 6 10 1006.1 1005.9 20.4
05/03:03am 23.4 25.6 21.8 91 1.1 S 13 17 7 9 1006.7 1006.5 20.2
05/03:00am 23.5 25.4 22.1 92 0.9 SSE 15 24 8 13 1006.7 1006.5 20.2
05/02:32am 24.8 27.6 24.3 97 0.3 S 17 33 9 18 1006.6 1006.4 20.0
05/02:30am 24.9 27.8 24.4 97 0.3 S 17 26 9 14 1006.6 1006.4 20.0
05/02:00am 24.9 27.4 24.4 97 0.3 S 19 30 10 16 1007.0 1006.8 19.2
05/01:30am 25.0 27.9 24.5 97 0.3 S 17 30 9 16 1007.8 1007.6 17.6
05/01:00am 25.2 28.6 24.7 97 0.3 SSW 15 28 8 15 1008.3 1008.1 16.0
05/12:30am 25.2 30.3 24.9 98 0.2 SW 7 11 4 6 1008.5 1008.3 14.2
05/12:00am 25.2 29.8 24.7 97 0.3 SSW 9 15 5 8 1008.9 1008.7 12.2
 
Date/Time
CST
Temp
°C
App
Temp
°C
Dew
Point
Rel
Hum
%
Delta-T
°C
Wind Press
QNH
hPa
Press
MSL
hPa
Rain
since 9 am
mm
Dir
 
Spd
km/h
Gust
km/h
Spd
kts
Gust
kts
04/11:30pm 25.3 29.0 24.6 96 0.5 SSW 13 17 7 9 1008.9 1008.7 10.6
04/11:00pm 25.6 29.8 24.7 95 0.6 SSW 11 17 6 9 1008.6 1008.4 9.4
04/10:30pm 26.2 30.8 25.3 95 0.6 SW 11 19 6 10 1008.2 1008.0 9.2
04/10:21pm 26.3 31.3 25.4 95 0.6 SSW 9 15 5 8 1008.3 1008.1 9.2
04/10:00pm 26.6 32.5 25.9 96 0.5 WNW 6 9 3 5 1007.7 1007.5 9.0
04/09:43pm 26.6 32.2 25.7 95 0.6 SW 7 11 4 6 1007.6 1007.4 8.0
04/09:30pm 26.6 30.3 25.7 95 0.6 NW 17 28 9 15 1007.4 1007.2 5.4
04/09:00pm 27.0 32.3 25.8 93 0.8 ENE 9 11 5 6 1007.1 1006.9 0.2
04/08:30pm 27.2 32.6 25.4 90 1.3 NNW 7 11 4 6 1007.0 1006.8 0.0
04/08:00pm 27.5 32.9 25.5 89 1.4 NW 7 11 4 6 1007.1 1006.9 0.0
04/07:30pm 27.2 32.8 25.8 92 1.0 ESE 7 11 4 6 1006.4 1006.2 0.0
04/07:00pm 27.4 32.5 25.0 87 1.7 E 7 11 4 6 1005.9 1005.7 0.0
04/06:30pm 27.9 32.5 24.7 83 2.2 E 9 13 5 7 1005.6 1005.4 0.0
04/06:00pm 27.9 31.8 25.5 87 1.7 ESE 15 24 8 13 1005.6 1005.4 0.0
04/05:30pm 28.5 34.0 23.4 74 3.5 CALM 0 4 0 2 1005.0 1004.8 0.0
04/05:00pm 28.4 34.0 24.2 78 2.9 ENE 2 9 1 5 1004.1 1003.9 0.0
04/04:30pm 30.0 32.5 25.3 76 3.3 NNW 22 30 12 16 1003.9 1003.7 0.0
04/04:00pm 31.3 35.0 26.6 76 3.4 N 20 32 11 17 1003.9 1003.7 0.0
04/03:30pm 31.8 35.0 25.9 71 4.2 N 20 32 11 17 1004.1 1003.9 0.0
04/03:00pm 32.0 36.0 26.8 74 3.8 N 19 24 10 13 1004.4 1004.2 0.0
04/02:30pm 32.9 36.6 25.2 64 5.5 NNW 15 24 8 13 1004.9 1004.7 0.0
04/02:00pm 33.5 38.2 24.9 60 6.1 W 9 17 5 9 1005.4 1005.2 0.0
04/01:30pm 32.2 36.6 25.0 65 5.1 WNW 11 20 6 11 1005.9 1005.7 0.0
04/01:00pm 31.8 36.4 24.7 66 5.0 W 9 15 5 8 1006.4 1006.2 0.0
04/12:30pm 31.6 36.2 24.7 67 4.9 SW 9 13 5 7 1006.9 1006.7 0.0
04/12:00pm 31.5 36.5 25.4 70 4.3 SW 9 15 5 8 1007.4 1007.2 0.0
04/11:30am 30.8 34.8 24.4 68 4.5 SW 11 17 6 9 1007.8 1007.6 0.0
04/11:00am 30.7 35.1 25.1 72 3.9 SSW 11 19 6 10 1008.2 1008.0 0.0
04/10:30am 30.2 34.1 24.8 73 3.8 WSW 13 19 7 10 1008.7 1008.5 0.0
04/10:00am 29.6 33.5 24.9 76 3.3 W 13 22 7 12 1009.0 1008.8 0.0
04/09:30am 29.0 33.6 24.8 78 2.9 W 9 15 5 8 1009.2 1009.0 0.0
04/09:00am 28.2 33.0 24.4 80 2.6 WSW 7 13 4 7 1009.2 1009.0 4.8
04/08:30am 27.5 32.6 24.6 84 2.0 SW 6 11 3 6 1009.1 1008.9 4.8
04/08:00am 27.0 31.8 24.5 86 1.7 WSW 7 13 4 7 1009.1 1008.9 4.8
04/07:30am 26.6 31.5 24.6 89 1.4 WSW 7 11 4 6 1009.2 1009.0 4.8
04/07:00am 26.1 31.2 24.7 92 1.0 W 6 9 3 5 1009.0 1008.8 4.8
04/06:30am 25.8 30.9 24.6 93 0.8 SW 6 7 3 4 1008.6 1008.4 4.8
04/06:00am 25.9 30.9 24.5 92 1.0 SW 6 9 3 5 1007.9 1007.7 4.8
04/05:30am 26.1 31.1 24.5 91 1.1 WSW 6 9 3 5 1007.8 1007.6 4.8
04/05:00am 26.3 31.1 24.5 90 1.2 WSW 7 11 4 6 1007.7 1007.5 4.8
04/04:30am 26.4 31.2 24.4 89 1.4 W 7 11 4 6 1007.6 1007.4 4.8
04/04:00am 26.4 31.2 24.4 89 1.4 W 7 13 4 7 1007.3 1007.1 4.8
04/03:30am 26.4 31.0 24.2 88 1.5 WSW 7 11 4 6 1007.0 1006.8 4.8
04/03:00am 26.4 31.2 24.1 87 1.6 WSW 6 9 3 5 1007.1 1006.9 4.8
04/02:30am 26.6 31.2 24.1 86 1.7 W 7 11 4 6 1007.0 1006.8 4.8
04/02:00am 26.7 30.8 24.0 85 1.9 W 9 17 5 9 1007.1 1006.9 4.8
04/01:30am 26.8 30.9 23.9 84 2.0 WSW 9 17 5 9 1007.6 1007.4 4.8
04/01:00am 27.0 30.6 23.7 82 2.3 W 11 19 6 10 1008.1 1007.9 4.8
04/12:30am 27.3 31.3 23.7 81 2.5 W 9 15 5 8 1008.2 1008.0 4.8
04/12:00am 27.5 31.6 23.9 81 2.5 W 9 19 5 10 1008.1 1007.9 4.8
 
Date/Time
CST
Temp
°C
App
Temp
°C
Dew
Point
Rel
Hum
%
Delta-T
°C
Wind Press
QNH
hPa
Press
MSL
hPa
Rain
since 9 am
mm
Dir
 
Spd
km/h
Gust
km/h
Spd
kts
Gust
kts
03/11:30pm 27.7 32.5 25.1 86 1.8 W 9 20 5 11 1008.3 1008.1 4.8
03/11:00pm 27.8 32.5 25.6 88 1.6 WNW 11 15 6 8 1008.2 1008.0 4.8
03/10:30pm 27.9 32.7 25.7 88 1.6 WNW 11 17 6 9 1008.1 1007.9 4.8
03/10:00pm 27.9 33.0 25.5 87 1.7 W 9 15 5 8 1008.1 1007.9 4.8
03/09:30pm 28.0 33.3 25.2 85 2.0 W 7 13 4 7 1008.2 1008.0 4.8
03/09:00pm 28.2 33.1 25.2 84 2.1 WNW 9 17 5 9 1008.0 1007.8 4.8
03/08:30pm 28.4 32.6 24.8 81 2.5 WNW 11 19 6 10 1007.5 1007.3 4.8
03/08:00pm 28.5 32.6 24.5 79 2.8 WNW 11 15 6 8 1006.8 1006.6 4.8
03/07:30pm 28.7 33.1 24.5 78 2.9 WNW 9 15 5 8 1006.5 1006.3 4.8
03/07:00pm 29.1 33.9 25.1 79 2.8 WNW 9 15 5 8 1006.2 1006.0 4.8
03/06:30pm 29.3 33.6 25.5 80 2.7 WNW 13 19 7 10 1005.7 1005.5 4.8
03/06:00pm 29.7 33.9 26.5 83 2.3 NW 17 24 9 13 1005.4 1005.2 4.8
03/05:30pm 29.4 32.9 26.8 86 1.9 NNW 22 28 12 15 1004.6 1004.4 4.8
03/05:00pm 28.1 34.1 26.3 90 1.3 N 7 11 4 6 1004.8 1004.6 4.8
03/04:30pm 26.3 28.9 24.0 87 1.6 WSW 17 33 9 18 1005.1 1004.9 4.6
03/04:21pm 26.4 27.7 23.3 83 2.1 WNW 22 39 12 21 1005.1 1004.9 1.4
03/04:00pm 29.8 30.9 25.5 78 3.0 N 30 37 16 20 1004.5 1004.3 0.0
03/03:30pm 30.5 32.2 25.3 74 3.7 N 26 33 14 18 1004.8 1004.6 0.0
03/03:00pm 30.8 34.3 26.3 77 3.2 N 20 26 11 14 1005.3 1005.1 0.0
03/02:30pm 31.0 33.6 24.9 70 4.3 N 20 26 11 14 1005.8 1005.6 0.0
03/02:00pm 31.7 35.2 24.8 67 4.9 NNW 15 20 8 11 1006.0 1005.8 0.0
03/01:30pm 32.4 34.7 22.8 57 6.6 WNW 15 22 8 12 1006.3 1006.1 0.0
03/01:00pm 32.1 36.5 24.4 63 5.4 W 9 17 5 9 1006.7 1006.5 0.0

Other Formats:

Comma delimited format used in spreadsheet applications
http://www.bom.gov.au/fwo/IDD60801/IDD60801.95142.axf

JavaScript Object Notation format (JSON) in row-major order
http://www.bom.gov.au/fwo/IDD60801/IDD60801.95142.json